Aviation Digital Data Service (ADDS)

Output produced by METARs form (0134 UTC 29 April 2017)
found at http://aviationweather.gov/adds/metars/
 
KBVI 290109Z 2901/2924 VRB03KT P6SM BKN100 
     FM290200 VRB05KT 5SM -SHRA VCTS OVC050CB 
     FM290500 VRB05KT P6SM VCSH OVC050 
     FM290700 24010KT 5SM -SHRA VCTS OVC030CB 
     FM291100 25010KT P6SM -SHRA OVC015 
     FM292000 28008KT P6SM VCSH BKN035 AMD NOT SKED 2902/2912